createdAt,value
2022-11-25T06:27:04.070Z,100314.63
2022-11-25T06:29:30.605Z,100312.56
2022-11-25T06:31:57.069Z,100315.09
2022-11-25T06:34:26.348Z,100316.00
2022-11-25T06:36:53.594Z,100306.13
2022-11-25T06:39:20.289Z,100312.38
2022-11-25T06:41:47.370Z,100311.38
2022-11-25T06:46:43.163Z,100307.97
2022-11-25T06:49:09.980Z,100315.03
2022-11-25T06:51:36.423Z,100319.41
2022-11-25T06:54:02.935Z,100321.69
2022-11-25T06:56:29.695Z,100326.47
2022-11-25T06:58:56.156Z,100325.03
2022-11-25T07:01:24.275Z,100325.50
2022-11-25T07:03:52.659Z,100329.44
2022-11-25T07:06:19.735Z,100331.28
2022-11-25T07:08:46.842Z,100334.97
2022-11-25T07:11:26.627Z,100339.75
2022-11-25T07:13:57.550Z,100336.03
2022-11-25T07:16:24.616Z,100347.81
2022-11-25T07:18:51.035Z,100346.16
2022-11-25T07:21:18.587Z,100335.44
2022-11-25T07:23:45.890Z,100332.75
2022-11-25T07:26:15.451Z,100347.81
2022-11-25T07:28:41.860Z,100338.31
2022-11-25T07:31:23.340Z,100344.50
2022-11-25T07:33:55.964Z,100354.41
2022-11-25T07:36:22.684Z,100361.03
2022-11-25T07:38:49.032Z,100361.03
2022-11-25T07:41:16.721Z,100373.41
2022-11-25T07:43:46.587Z,100368.06
2022-11-25T07:46:26.239Z,100386.63
2022-11-25T07:48:54.120Z,100381.25
2022-11-25T07:51:23.505Z,100389.06
2022-11-25T07:53:50.357Z,100391.53
2022-11-25T07:56:17.961Z,100392.38
2022-11-25T07:58:46.135Z,100397.53
2022-11-25T08:01:13.314Z,100411.34
2022-11-25T08:03:40.603Z,100418.31
2022-11-25T08:06:08.517Z,100411.94
2022-11-25T08:08:35.681Z,100417.91
2022-11-25T08:11:05.827Z,100409.66
2022-11-25T08:13:32.695Z,100404.06
2022-11-25T08:15:59.650Z,100414.56
2022-11-25T08:18:25.986Z,100409.84
2022-11-25T08:20:52.362Z,100406.94
2022-11-25T08:23:18.733Z,100402.16
2022-11-25T08:25:50.130Z,100407.09
2022-11-25T08:28:16.909Z,100408.75
2022-11-25T08:30:43.339Z,100418.03
2022-11-25T08:33:09.933Z,100416.94
2022-11-25T08:35:38.019Z,100409.53
2022-11-25T08:38:05.786Z,100400.44
2022-11-25T08:40:33.407Z,100406.63
2022-11-25T08:42:59.809Z,100403.72
2022-11-25T08:45:26.249Z,100414.03
2022-11-25T08:47:52.694Z,100412.97
2022-11-25T08:50:19.081Z,100413.59
2022-11-25T08:52:45.483Z,100409.88
2022-11-25T08:55:11.881Z,100413.16
2022-11-25T08:57:38.238Z,100404.88
2022-11-25T09:00:05.555Z,100406.34
2022-11-25T09:02:31.996Z,100406.94
2022-11-25T09:04:58.374Z,100403.22
2022-11-25T09:07:30.355Z,100416.22
2022-11-25T09:09:57.142Z,100404.44
2022-11-25T09:12:23.574Z,100407.72
2022-11-25T09:14:49.975Z,100411.00
2022-11-25T09:17:16.553Z,100411.81
2022-11-25T09:19:42.891Z,100421.31
2022-11-25T09:22:09.378Z,100414.91
2022-11-25T09:24:36.288Z,100422.16
2022-11-25T09:27:02.828Z,100430.78
2022-11-25T09:29:30.914Z,100425.81
2022-11-25T09:31:57.358Z,100432.63
2022-11-25T09:34:24.450Z,100429.94
2022-11-25T09:36:51.583Z,100446.63
2022-11-25T09:39:17.987Z,100442.69
2022-11-25T09:42:06.012Z,100446.41
2022-11-25T09:45:03.907Z,100451.59
2022-11-25T09:47:30.262Z,100454.63
2022-11-25T09:49:59.616Z,100452.56
2022-11-25T09:52:44.920Z,100454.22
2022-11-25T09:55:15.547Z,100457.50
2022-11-25T09:57:59.090Z,100452.97
2022-11-25T10:00:27.596Z,100451.69
2022-11-25T10:03:06.977Z,100449.00
2022-11-25T10:05:37.944Z,100454.97
2022-11-25T10:08:24.605Z,100458.47
2022-11-25T10:10:58.656Z,100460.97
2022-11-25T10:13:29.371Z,100470.22
2022-11-25T10:15:59.096Z,100468.59
2022-11-25T10:18:30.147Z,100475.16
2022-11-25T10:20:56.507Z,100477.63
2022-11-25T10:23:28.143Z,100478.47
2022-11-25T10:26:01.337Z,100474.72
2022-11-25T10:28:31.839Z,100480.47
2022-11-25T10:31:04.663Z,100482.34
2022-11-25T10:33:32.752Z,100466.00
2022-11-25T10:36:00.847Z,100471.16
2022-11-25T10:38:45.616Z,100475.50
2022-11-25T10:41:15.632Z,100482.50
2022-11-25T10:43:42.407Z,100477.56
2022-11-25T10:46:16.437Z,100474.44
2022-11-25T10:48:50.300Z,100478.19
2022-11-25T10:51:27.887Z,100476.09
2022-11-25T10:54:12.783Z,100481.47
2022-11-25T10:56:43.145Z,100480.88
2022-11-25T10:59:13.596Z,100484.13
2022-11-25T11:01:40.127Z,100485.78
2022-11-25T11:04:13.018Z,100484.97
2022-11-25T11:06:40.588Z,100484.97
2022-11-25T11:09:26.881Z,100488.47
2022-11-25T11:11:53.250Z,100489.09
2022-11-25T11:14:21.001Z,100517.59
2022-11-25T11:16:55.013Z,100494.25
2022-11-25T11:19:26.016Z,100498.19
2022-11-25T11:21:52.822Z,100495.69
2022-11-25T11:24:29.855Z,100499.41
2022-11-25T11:27:14.879Z,100501.06
2022-11-25T11:29:41.346Z,100514.28
2022-11-25T11:32:18.326Z,100511.56
2022-11-25T11:34:48.110Z,100506.78
2022-11-25T11:37:17.618Z,100509.47
2022-11-25T11:39:54.970Z,100508.44
2022-11-25T11:42:29.474Z,100513.00
2022-11-25T11:45:12.422Z,100512.56
2022-11-25T11:47:57.534Z,100508.84
2022-11-25T11:50:26.465Z,100510.50
2022-11-25T11:52:52.799Z,100499.72
2022-11-25T11:55:28.458Z,100503.47
2022-11-25T11:58:04.037Z,100508.38
2022-11-25T12:00:33.397Z,100512.09
2022-11-25T12:03:02.469Z,100513.53
2022-11-25T12:05:31.572Z,100523.03
2022-11-25T12:08:02.060Z,100522.44
2022-11-25T12:10:47.115Z,100519.53
2022-11-25T12:13:19.337Z,100522.81
2022-11-25T12:15:45.711Z,100524.69
2022-11-25T12:18:15.873Z,100522.00
2022-11-25T12:20:51.000Z,100517.00
2022-11-25T12:23:32.749Z,100521.53
2022-11-25T12:26:02.719Z,100530.22
2022-11-25T12:28:33.842Z,100534.34
2022-11-25T12:31:13.029Z,100532.22
2022-11-25T12:33:45.223Z,100531.19
2022-11-25T12:36:20.900Z,100532.63
2022-11-25T12:38:54.732Z,100530.56
2022-11-25T12:41:27.000Z,100530.09
2022-11-25T12:44:00.572Z,100538.97
2022-11-25T12:46:33.919Z,100537.72
2022-11-25T12:49:01.297Z,100546.16
2022-11-25T12:51:40.443Z,100536.84
2022-11-25T12:54:13.106Z,100540.97
2022-11-25T12:56:45.595Z,100551.50
2022-11-25T12:59:11.992Z,100551.03
2022-11-25T13:01:38.815Z,100554.34
2022-11-25T13:04:11.681Z,100553.06
2022-11-25T13:06:50.036Z,100559.88
2022-11-25T13:09:19.536Z,100564.22
2022-11-25T13:12:12.933Z,100556.97
2022-11-25T13:14:55.132Z,100560.25
2022-11-25T13:17:23.068Z,100560.84
2022-11-25T13:19:49.692Z,100570.13
2022-11-25T13:22:23.586Z,100559.16
2022-11-25T13:24:50.203Z,100573.22
2022-11-25T13:27:33.632Z,100555.81
2022-11-25T13:30:01.111Z,100550.78
2022-11-25T13:32:33.767Z,100551.41
2022-11-25T13:35:19.152Z,100554.72
2022-11-25T13:37:45.677Z,100580.56
2022-11-25T13:40:31.165Z,100573.09
2022-11-25T13:43:00.502Z,100572.06
2022-11-25T13:45:26.982Z,100585.94
2022-11-25T13:47:54.791Z,100592.97
2022-11-25T13:50:22.774Z,100588.63
2022-11-25T13:53:08.197Z,100597.53
2022-11-25T13:55:36.208Z,100598.34
2022-11-25T13:58:05.691Z,100609.13
2022-11-25T14:00:32.111Z,100609.13
2022-11-25T14:03:18.551Z,100601.66
2022-11-25T14:05:51.076Z,100610.31
2022-11-25T14:08:20.639Z,100611.50
2022-11-25T14:10:56.135Z,100612.13
2022-11-25T14:13:41.449Z,100612.88
2022-11-25T14:16:26.969Z,100615.13
2022-11-25T14:19:43.794Z,100614.22
2022-11-25T14:22:07.329Z,100619.19
2022-11-25T14:24:39.912Z,100625.75
2022-11-25T14:27:13.985Z,100624.50
2022-11-25T14:29:50.878Z,100627.31
2022-11-25T14:32:23.320Z,100625.22
2022-11-25T14:34:54.148Z,100633.91
2022-11-25T14:37:26.169Z,100632.63
2022-11-25T14:39:52.589Z,100628.88
2022-11-25T14:42:21.206Z,100634.28
2022-11-25T14:44:49.242Z,100636.72
2022-11-25T14:47:15.765Z,100641.31
2022-11-25T14:49:59.502Z,100650.00
2022-11-25T14:52:36.049Z,100649.16
2022-11-25T14:55:04.721Z,100652.69
2022-11-25T14:57:35.992Z,100654.31
2022-11-25T15:00:04.911Z,100661.34
2022-11-25T15:02:33.419Z,100662.41
2022-11-25T15:05:15.032Z,100673.16
2022-11-25T15:07:43.323Z,100677.13
2022-11-25T15:10:32.763Z,100674.66
2022-11-25T15:13:00.277Z,100681.31
2022-11-25T15:15:27.318Z,100685.28
2022-11-25T15:17:55.337Z,100681.16
2022-11-25T15:20:24.850Z,100684.09
2022-11-25T15:22:52.461Z,100688.28
2022-11-25T15:25:22.062Z,100684.63
2022-11-25T15:27:49.770Z,100689.38
2022-11-25T15:30:19.466Z,100690.88
2022-11-25T15:32:46.671Z,100690.53
2022-11-25T15:35:18.459Z,100696.31
2022-11-25T15:37:44.989Z,100700.50
2022-11-25T15:40:31.411Z,100706.34
2022-11-25T15:42:59.527Z,100705.13
2022-11-25T15:45:27.200Z,100717.16
2022-11-25T15:47:53.791Z,100718.44
2022-11-25T15:50:24.832Z,100714.31
2022-11-25T15:52:55.763Z,100715.56
2022-11-25T15:55:36.216Z,100716.81
2022-11-25T15:58:16.939Z,100716.44
2022-11-25T16:00:59.249Z,100728.47
2022-11-25T16:03:25.928Z,100723.50
2022-11-25T16:05:56.257Z,100723.94
2022-11-25T16:08:33.477Z,100735.97
2022-11-25T16:11:09.542Z,100736.41
2022-11-25T16:13:37.157Z,100740.34
2022-11-25T16:16:03.615Z,100745.34
2022-11-25T16:18:40.296Z,100753.84
2022-11-25T16:21:12.504Z,100747.22
2022-11-25T16:23:41.908Z,100753.03
2022-11-25T16:26:11.089Z,100754.53
2022-11-25T16:28:37.892Z,100756.81
2022-11-25T16:31:04.317Z,100756.44
2022-11-25T16:33:30.786Z,100766.56
2022-11-25T16:35:57.194Z,100761.22
2022-11-25T16:38:23.723Z,100771.19
2022-11-25T16:40:52.526Z,100776.16
2022-11-25T16:43:23.727Z,100782.78
2022-11-25T16:45:51.654Z,100782.59
2022-11-25T16:48:19.464Z,100782.19
2022-11-25T16:50:46.475Z,100789.88
2022-11-25T16:53:13.041Z,100787.59
2022-11-25T16:55:41.029Z,100797.13
2022-11-25T16:58:11.732Z,100797.56
2022-11-25T17:00:38.203Z,100793.63
2022-11-25T17:03:05.893Z,100802.13
2022-11-25T17:05:33.707Z,100805.44
2022-11-25T17:08:00.270Z,100805.03
2022-11-25T17:10:27.053Z,100808.16
2022-11-25T17:12:53.537Z,100804.22
2022-11-25T17:15:21.455Z,100814.34
2022-11-25T17:46:38.361Z,100854.88
2022-11-25T17:49:13.196Z,100867.50
2022-11-25T17:51:39.796Z,100853.88
2022-11-25T17:54:06.226Z,100864.41
2022-11-25T17:56:32.808Z,100868.53
2022-11-25T17:59:03.843Z,100881.53
2022-11-25T18:01:30.715Z,100882.38
2022-11-25T18:03:57.845Z,100884.03
2022-11-25T18:06:24.355Z,100879.91
2022-11-25T18:08:51.093Z,100885.06
2022-11-25T18:11:18.885Z,100888.34
2022-11-25T18:13:47.787Z,100888.16
2022-11-25T18:16:18.036Z,100891.44
2022-11-25T18:18:44.655Z,100892.44
2022-11-25T18:21:11.800Z,100909.19
2022-11-25T18:23:38.372Z,100905.66
2022-11-25T18:26:05.232Z,100906.28
2022-11-25T18:28:31.992Z,100921.19
2022-11-25T18:31:05.146Z,100921.53
2022-11-25T18:33:32.226Z,100929.97
2022-11-25T18:35:58.856Z,100935.13
2022-11-25T18:38:25.547Z,100931.84
2022-11-25T18:40:54.063Z,100936.56
2022-11-25T18:43:24.772Z,100949.16
2022-11-25T18:45:53.983Z,100944.19
2022-11-25T18:48:25.884Z,100948.09
2022-11-25T18:50:55.035Z,100944.19
2022-11-25T18:53:21.945Z,100951.63
2022-11-25T18:55:49.484Z,100944.59
2022-11-25T18:58:24.914Z,100956.16
2022-11-25T19:00:52.462Z,100959.88
2022-11-25T19:03:22.259Z,100964.81
2022-11-25T19:05:49.532Z,100970.38
2022-11-25T19:08:16.349Z,100974.75
2022-11-25T19:10:44.441Z,100977.72
2022-11-25T19:13:27.723Z,100979.09
2022-11-25T19:15:55.047Z,100980.31
2022-11-25T19:18:26.751Z,100988.56
2022-11-25T19:20:53.561Z,100990.84
2022-11-25T19:23:22.870Z,100990.31
2022-11-25T19:25:49.571Z,100996.25
2022-11-25T19:28:16.661Z,100999.63
2022-11-25T19:30:45.359Z,101007.19
2022-11-25T19:33:19.591Z,100997.28
2022-11-25T19:35:46.263Z,101014.81
2022-11-25T19:38:21.491Z,101021.88
2022-11-25T19:40:49.318Z,101013.59
2022-11-25T19:43:15.832Z,101016.91
2022-11-25T19:45:42.588Z,101017.75
2022-11-25T19:48:14.500Z,101026.84
2022-11-25T19:50:42.817Z,101026.41
2022-11-25T19:53:16.069Z,101033.88
2022-11-25T19:55:42.553Z,101035.09
2022-11-25T19:58:08.990Z,101040.25
2022-11-25T20:00:35.773Z,101040.25
2022-11-25T20:03:02.226Z,101037.06
2022-11-25T20:05:33.378Z,101050.41
2022-11-25T20:08:00.448Z,101053.06
2022-11-25T20:10:30.282Z,101053.69
2022-11-25T20:12:57.189Z,101059.06
2022-11-25T20:15:24.064Z,101065.25
2022-11-25T20:17:53.809Z,101066.50
2022-11-25T20:20:23.809Z,101067.72
2022-11-25T20:23:00.845Z,101072.75
2022-11-25T20:25:28.085Z,101079.53
2022-11-25T20:27:54.772Z,101083.25
2022-11-25T20:30:24.232Z,101091.53
2022-11-25T20:32:51.141Z,101088.00
2022-11-25T20:35:18.392Z,101099.59
2022-11-25T20:37:53.992Z,101095.88
2022-11-25T20:40:23.961Z,101105.81
2022-11-25T20:42:51.317Z,101111.16
2022-11-25T20:45:21.417Z,101112.25
2022-11-25T20:47:52.892Z,101121.34
2022-11-25T20:50:20.968Z,101119.28
2022-11-25T20:52:49.896Z,101129.44
2022-11-25T20:55:23.375Z,101121.41
2022-11-25T20:57:51.992Z,101137.72
2022-11-25T21:00:26.548Z,101142.06
2022-11-25T21:02:55.396Z,101143.13
2022-11-25T21:05:21.916Z,101142.91
2022-11-25T21:07:50.292Z,101141.47
2022-11-25T21:10:25.019Z,101139.03
2022-11-25T21:12:52.049Z,101149.34
2022-11-25T21:15:23.614Z,101150.59
2022-11-25T21:17:50.762Z,101155.16
2022-11-25T21:20:18.876Z,101158.44
2022-11-25T21:22:49.776Z,101161.56
2022-11-25T21:25:22.551Z,101164.88
2022-11-25T21:27:50.999Z,101166.50
2022-11-25T21:30:23.265Z,101175.81
2022-11-25T21:32:54.471Z,101188.63
2022-11-25T21:35:22.422Z,101188.19
2022-11-25T21:37:48.867Z,101196.47
2022-11-25T21:40:33.092Z,101187.81
2022-11-25T21:43:00.655Z,101199.16
2022-11-25T21:45:27.211Z,101196.47
2022-11-25T21:47:53.704Z,101194.41
2022-11-25T21:50:20.411Z,101191.72
2022-11-25T21:52:46.933Z,101195.22
2022-11-25T21:55:15.243Z,101190.47
2022-11-25T21:57:42.339Z,101201.44
2022-11-25T22:00:20.091Z,101206.44
2022-11-25T22:02:46.725Z,101204.75
2022-11-25T22:05:14.561Z,101199.06
2022-11-25T22:07:41.182Z,101210.16
2022-11-25T22:10:08.329Z,101211.38
2022-11-25T22:12:39.686Z,101218.81
2022-11-25T22:15:30.097Z,101223.78
2022-11-25T22:17:58.211Z,101220.66
2022-11-25T22:20:34.095Z,101222.75
2022-11-25T22:23:01.656Z,101231.63
2022-11-25T22:25:31.302Z,101234.91
2022-11-25T22:27:57.896Z,101229.94
2022-11-25T22:30:24.436Z,101235.31
2022-11-25T22:33:00.606Z,101238.84
2022-11-25T22:35:27.969Z,101241.50
2022-11-25T22:37:55.487Z,101247.75
2022-11-25T22:40:23.778Z,101247.75
2022-11-25T22:42:52.006Z,101248.34
2022-11-25T22:45:33.073Z,101248.22
2022-11-25T22:48:03.519Z,101254.38
2022-11-25T22:50:32.384Z,101262.22
2022-11-25T22:53:00.834Z,101262.22
2022-11-25T22:55:30.041Z,101264.09
2022-11-25T22:57:58.954Z,101272.97
2022-11-25T23:00:28.251Z,101267.59
2022-11-25T23:02:56.890Z,101273.78
2022-11-25T23:05:32.240Z,101278.34
2022-11-25T23:08:01.350Z,101283.50
2022-11-25T23:10:30.425Z,101288.91
2022-11-25T23:12:56.895Z,101287.22
2022-11-25T23:15:24.727Z,101284.38
2022-11-25T23:17:54.657Z,101287.66
2022-11-25T23:20:26.185Z,101294.06
2022-11-25T23:22:52.697Z,101287.06
2022-11-25T23:25:21.409Z,101290.34
2022-11-25T23:27:48.607Z,101292.44
2022-11-25T23:30:18.373Z,101295.72
2022-11-25T23:32:45.946Z,101298.63
2022-11-25T23:35:15.916Z,101307.31
2022-11-25T23:37:42.349Z,101306.88
2022-11-25T23:40:19.085Z,101312.09
2022-11-25T23:42:45.588Z,101316.63
2022-11-25T23:45:15.094Z,101314.09
2022-11-25T23:47:43.581Z,101325.44
2022-11-25T23:50:18.287Z,101325.91
2022-11-25T23:52:44.836Z,101322.53
2022-11-25T23:55:18.221Z,101331.66
2022-11-25T23:57:47.571Z,101327.06
